sensor_id;sensor_type;location;lat;lon;timestamp;P1;durP1;ratioP1;P2;durP2;ratioP2
57249;SDS011;43102;52.014;-0.680;2022-10-13T00:00:00;6.20;;;3.10;;
57249;SDS011;43102;52.014;-0.680;2022-10-13T00:01:08;6.20;;;3.10;;
57249;SDS011;43102;52.014;-0.680;2022-10-13T00:02:00;6.20;;;3.10;;
57249;SDS011;43102;52.014;-0.680;2022-10-13T00:03:01;6.20;;;3.10;;
57249;SDS011;43102;52.014;-0.680;2022-10-13T00:04:00;6.20;;;3.10;;
57249;SDS011;43102;52.014;-0.680;2022-10-13T00:05:00;6.20;;;3.10;;
57249;SDS011;43102;52.014;-0.680;2022-10-13T00:06:06;6.20;;;3.10;;
57249;SDS011;43102;52.014;-0.680;2022-10-13T00:07:00;6.20;;;3.10;;
57249;SDS011;43102;52.014;-0.680;2022-10-13T00:08:00;6.20;;;3.10;;
57249;SDS011;43102;52.014;-0.680;2022-10-13T00:09:00;6.20;;;3.10;;
57249;SDS011;43102;52.014;-0.680;2022-10-13T00:10:00;6.20;;;3.10;;
57249;SDS011;43102;52.014;-0.680;2022-10-13T00:11:00;6.20;;;3.10;;
57249;SDS011;43102;52.014;-0.680;2022-10-13T00:12:00;6.20;;;3.10;;
57249;SDS011;43102;52.014;-0.680;2022-10-13T00:13:00;6.20;;;3.10;;
57249;SDS011;43102;52.014;-0.680;2022-10-13T00:14:02;6.20;;;3.10;;
57249;SDS011;43102;52.014;-0.680;2022-10-13T00:15:00;6.20;;;3.10;;
57249;SDS011;43102;52.014;-0.680;2022-10-13T00:16:01;6.20;;;3.10;;
57249;SDS011;43102;52.014;-0.680;2022-10-13T00:17:00;6.20;;;3.10;;
57249;SDS011;43102;52.014;-0.680;2022-10-13T00:18:00;6.20;;;3.10;;
57249;SDS011;43102;52.014;-0.680;2022-10-13T00:19:00;6.20;;;3.10;;
57249;SDS011;43102;52.014;-0.680;2022-10-13T00:20:00;6.20;;;3.10;;
57249;SDS011;43102;52.014;-0.680;2022-10-13T00:21:04;6.20;;;3.10;;
57249;SDS011;43102;52.014;-0.680;2022-10-13T00:22:00;6.20;;;3.10;;
57249;SDS011;43102;52.014;-0.680;2022-10-13T00:23:00;6.20;;;3.10;;
57249;SDS011;43102;52.014;-0.680;2022-10-13T00:24:00;6.20;;;3.10;;
57249;SDS011;43102;52.014;-0.680;2022-10-13T00:25:01;6.60;;;3.80;;
57249;SDS011;43102;52.014;-0.680;2022-10-13T00:26:04;6.60;;;3.80;;
57249;SDS011;43102;52.014;-0.680;2022-10-13T00:27:00;6.60;;;3.80;;
57249;SDS011;43102;52.014;-0.680;2022-10-13T00:28:00;6.60;;;3.80;;
57249;SDS011;43102;52.014;-0.680;2022-10-13T00:29:00;6.60;;;3.80;;
57249;SDS011;43102;52.014;-0.680;2022-10-13T00:30:00;6.60;;;3.80;;
57249;SDS011;43102;52.014;-0.680;2022-10-13T00:31:00;6.60;;;3.80;;
57249;SDS011;43102;52.014;-0.680;2022-10-13T00:32:00;6.60;;;3.80;;
57249;SDS011;43102;52.014;-0.680;2022-10-13T00:33:00;6.60;;;3.80;;
57249;SDS011;43102;52.014;-0.680;2022-10-13T00:34:01;6.60;;;3.80;;
57249;SDS011;43102;52.014;-0.680;2022-10-13T00:35:00;6.60;;;3.80;;
57249;SDS011;43102;52.014;-0.680;2022-10-13T00:36:00;6.60;;;3.80;;
57249;SDS011;43102;52.014;-0.680;2022-10-13T00:37:00;6.60;;;3.80;;
57249;SDS011;43102;52.014;-0.680;2022-10-13T00:38:00;6.60;;;3.80;;
57249;SDS011;43102;52.014;-0.680;2022-10-13T00:39:00;6.60;;;3.80;;
57249;SDS011;43102;52.014;-0.680;2022-10-13T00:40:00;6.60;;;3.80;;
57249;SDS011;43102;52.014;-0.680;2022-10-13T00:41:00;6.60;;;3.80;;
57249;SDS011;43102;52.014;-0.680;2022-10-13T00:42:00;6.60;;;3.80;;
57249;SDS011;43102;52.014;-0.680;2022-10-13T00:43:00;6.60;;;3.80;;
57249;SDS011;43102;52.014;-0.680;2022-10-13T00:44:05;6.60;;;3.80;;
57249;SDS011;43102;52.014;-0.680;2022-10-13T00:45:02;6.60;;;3.80;;
57249;SDS011;43102;52.014;-0.680;2022-10-13T00:46:00;6.60;;;3.80;;
57249;SDS011;43102;52.014;-0.680;2022-10-13T00:47:00;6.60;;;3.80;;
57249;SDS011;43102;52.014;-0.680;2022-10-13T00:48:01;6.60;;;3.80;;
57249;SDS011;43102;52.014;-0.680;2022-10-13T00:49:08;6.60;;;3.80;;
57249;SDS011;43102;52.014;-0.680;2022-10-13T00:50:02;6.60;;;3.80;;
57249;SDS011;43102;52.014;-0.680;2022-10-13T00:51:00;6.60;;;3.80;;
57249;SDS011;43102;52.014;-0.680;2022-10-13T00:52:00;6.60;;;3.80;;
57249;SDS011;43102;52.014;-0.680;2022-10-13T00:53:00;6.60;;;3.80;;
57249;SDS011;43102;52.014;-0.680;2022-10-13T00:54:02;6.60;;;3.80;;
57249;SDS011;43102;52.014;-0.680;2022-10-13T00:55:02;6.10;;;3.20;;
57249;SDS011;43102;52.014;-0.680;2022-10-13T00:56:00;6.10;;;3.20;;
57249;SDS011;43102;52.014;-0.680;2022-10-13T00:57:02;6.10;;;3.20;;
57249;SDS011;43102;52.014;-0.680;2022-10-13T00:58:06;6.10;;;3.20;;
57249;SDS011;43102;52.014;-0.680;2022-10-13T00:59:00;6.10;;;3.20;;
57249;SDS011;43102;52.014;-0.680;2022-10-13T01:00:03;6.10;;;3.20;;
57249;SDS011;43102;52.014;-0.680;2022-10-13T01:01:01;6.10;;;3.20;;
57249;SDS011;43102;52.014;-0.680;2022-10-13T01:02:01;6.10;;;3.20;;
57249;SDS011;43102;52.014;-0.680;2022-10-13T01:03:01;6.10;;;3.20;;
57249;SDS011;43102;52.014;-0.680;2022-10-13T01:04:00;6.10;;;3.20;;
57249;SDS011;43102;52.014;-0.680;2022-10-13T01:05:01;6.10;;;3.20;;
57249;SDS011;43102;52.014;-0.680;2022-10-13T01:06:02;6.10;;;3.20;;
57249;SDS011;43102;52.014;-0.680;2022-10-13T01:07:00;6.10;;;3.20;;
57249;SDS011;43102;52.014;-0.680;2022-10-13T01:08:00;6.10;;;3.20;;
57249;SDS011;43102;52.014;-0.680;2022-10-13T01:09:03;6.10;;;3.20;;
57249;SDS011;43102;52.014;-0.680;2022-10-13T01:10:02;6.10;;;3.20;;
57249;SDS011;43102;52.014;-0.680;2022-10-13T01:11:23;6.10;;;3.20;;
57249;SDS011;43102;52.014;-0.680;2022-10-13T01:14:14;6.10;;;3.20;;
57249;SDS011;43102;52.014;-0.680;2022-10-13T01:15:08;6.10;;;3.20;;
57249;SDS011;43102;52.014;-0.680;2022-10-13T01:16:06;6.10;;;3.20;;
57249;SDS011;43102;52.014;-0.680;2022-10-13T01:17:22;6.10;;;3.20;;
57249;SDS011;43102;52.014;-0.680;2022-10-13T01:19:22;6.10;;;3.20;;
57249;SDS011;43102;52.014;-0.680;2022-10-13T01:21:05;6.10;;;3.20;;
57249;SDS011;43102;52.014;-0.680;2022-10-13T01:24:19;6.10;;;3.20;;
57249;SDS011;43102;52.014;-0.680;2022-10-13T01:27:06;5.50;;;3.20;;
57249;SDS011;43102;52.014;-0.680;2022-10-13T01:31:06;5.50;;;3.20;;
57249;SDS011;43102;52.014;-0.680;2022-10-13T01:33:13;5.50;;;3.20;;
57249;SDS011;43102;52.014;-0.680;2022-10-13T01:34:08;5.50;;;3.20;;
57249;SDS011;43102;52.014;-0.680;2022-10-13T01:37:18;5.50;;;3.20;;
57249;SDS011;43102;52.014;-0.680;2022-10-13T01:39:05;5.50;;;3.20;;
57249;SDS011;43102;52.014;-0.680;2022-10-13T01:41:37;5.50;;;3.20;;
57249;SDS011;43102;52.014;-0.680;2022-10-13T01:42:12;5.50;;;3.20;;
57249;SDS011;43102;52.014;-0.680;2022-10-13T01:43:05;5.50;;;3.20;;
57249;SDS011;43102;52.014;-0.680;2022-10-13T01:44:10;5.50;;;3.20;;
57249;SDS011;43102;52.014;-0.680;2022-10-13T01:45:01;5.50;;;3.20;;
57249;SDS011;43102;52.014;-0.680;2022-10-13T01:46:06;5.50;;;3.20;;
57249;SDS011;43102;52.014;-0.680;2022-10-13T01:47:02;5.50;;;3.20;;
57249;SDS011;43102;52.014;-0.680;2022-10-13T01:48:01;5.50;;;3.20;;
57249;SDS011;43102;52.014;-0.680;2022-10-13T01:49:04;5.50;;;3.20;;
57249;SDS011;43102;52.014;-0.680;2022-10-13T01:50:02;5.50;;;3.20;;
57249;SDS011;43102;52.014;-0.680;2022-10-13T01:51:00;5.50;;;3.20;;
57249;SDS011;43102;52.014;-0.680;2022-10-13T01:52:05;5.50;;;3.20;;
57249;SDS011;43102;52.014;-0.680;2022-10-13T01:53:03;5.50;;;3.20;;
57249;SDS011;43102;52.014;-0.680;2022-10-13T01:54:00;5.50;;;3.20;;
57249;SDS011;43102;52.014;-0.680;2022-10-13T01:55:06;5.20;;;3.20;;
57249;SDS011;43102;52.014;-0.680;2022-10-13T01:56:00;5.20;;;3.20;;
57249;SDS011;43102;52.014;-0.680;2022-10-13T01:57:00;5.20;;;3.20;;
57249;SDS011;43102;52.014;-0.680;2022-10-13T01:58:00;5.20;;;3.20;;
57249;SDS011;43102;52.014;-0.680;2022-10-13T01:59:04;5.20;;;3.20;;
57249;SDS011;43102;52.014;-0.680;2022-10-13T02:00:04;5.20;;;3.20;;
57249;SDS011;43102;52.014;-0.680;2022-10-13T02:02:14;5.20;;;3.20;;
57249;SDS011;43102;52.014;-0.680;2022-10-13T02:03:06;5.20;;;3.20;;
57249;SDS011;43102;52.014;-0.680;2022-10-13T02:04:08;5.20;;;3.20;;
57249;SDS011;43102;52.014;-0.680;2022-10-13T02:05:18;5.20;;;3.20;;
57249;SDS011;43102;52.014;-0.680;2022-10-13T02:07:08;5.20;;;3.20;;
57249;SDS011;43102;52.014;-0.680;2022-10-13T02:08:01;5.20;;;3.20;;
57249;SDS011;43102;52.014;-0.680;2022-10-13T02:09:02;5.20;;;3.20;;
57249;SDS011;43102;52.014;-0.680;2022-10-13T02:10:12;5.20;;;3.20;;
57249;SDS011;43102;52.014;-0.680;2022-10-13T02:11:13;5.20;;;3.20;;
57249;SDS011;43102;52.014;-0.680;2022-10-13T02:12:07;5.20;;;3.20;;
57249;SDS011;43102;52.014;-0.680;2022-10-13T02:13:02;5.20;;;3.20;;
57249;SDS011;43102;52.014;-0.680;2022-10-13T02:14:07;5.20;;;3.20;;
57249;SDS011;43102;52.014;-0.680;2022-10-13T02:15:02;5.20;;;3.20;;
57249;SDS011;43102;52.014;-0.680;2022-10-13T02:16:00;5.20;;;3.20;;
57249;SDS011;43102;52.014;-0.680;2022-10-13T02:17:03;5.20;;;3.20;;
57249;SDS011;43102;52.014;-0.680;2022-10-13T02:18:01;5.20;;;3.20;;
57249;SDS011;43102;52.014;-0.680;2022-10-13T02:19:02;5.20;;;3.20;;
57249;SDS011;43102;52.014;-0.680;2022-10-13T02:20:00;5.20;;;3.20;;
57249;SDS011;43102;52.014;-0.680;2022-10-13T02:21:02;5.20;;;3.20;;
57249;SDS011;43102;52.014;-0.680;2022-10-13T02:22:00;5.20;;;3.20;;
57249;SDS011;43102;52.014;-0.680;2022-10-13T02:23:03;5.20;;;3.20;;
57249;SDS011;43102;52.014;-0.680;2022-10-13T02:24:02;5.20;;;3.20;;
57249;SDS011;43102;52.014;-0.680;2022-10-13T02:25:00;5.60;;;3.70;;
57249;SDS011;43102;52.014;-0.680;2022-10-13T02:26:00;5.60;;;3.70;;
57249;SDS011;43102;52.014;-0.680;2022-10-13T02:27:00;5.60;;;3.70;;
57249;SDS011;43102;52.014;-0.680;2022-10-13T02:28:01;5.60;;;3.70;;
57249;SDS011;43102;52.014;-0.680;2022-10-13T02:29:07;5.60;;;3.70;;
57249;SDS011;43102;52.014;-0.680;2022-10-13T02:30:00;5.60;;;3.70;;
57249;SDS011;43102;52.014;-0.680;2022-10-13T02:31:00;5.60;;;3.70;;
57249;SDS011;43102;52.014;-0.680;2022-10-13T02:32:00;5.60;;;3.70;;
57249;SDS011;43102;52.014;-0.680;2022-10-13T02:33:01;5.60;;;3.70;;
57249;SDS011;43102;52.014;-0.680;2022-10-13T02:34:00;5.60;;;3.70;;
57249;SDS011;43102;52.014;-0.680;2022-10-13T02:35:00;5.60;;;3.70;;
57249;SDS011;43102;52.014;-0.680;2022-10-13T02:36:00;5.60;;;3.70;;
57249;SDS011;43102;52.014;-0.680;2022-10-13T02:37:00;5.60;;;3.70;;
57249;SDS011;43102;52.014;-0.680;2022-10-13T02:38:00;5.60;;;3.70;;
57249;SDS011;43102;52.014;-0.680;2022-10-13T02:39:00;5.60;;;3.70;;
57249;SDS011;43102;52.014;-0.680;2022-10-13T02:40:00;5.60;;;3.70;;
57249;SDS011;43102;52.014;-0.680;2022-10-13T02:41:01;5.60;;;3.70;;
57249;SDS011;43102;52.014;-0.680;2022-10-13T02:42:00;5.60;;;3.70;;
57249;SDS011;43102;52.014;-0.680;2022-10-13T02:43:00;5.60;;;3.70;;
57249;SDS011;43102;52.014;-0.680;2022-10-13T02:44:00;5.60;;;3.70;;
57249;SDS011;43102;52.014;-0.680;2022-10-13T02:45:00;5.60;;;3.70;;
57249;SDS011;43102;52.014;-0.680;2022-10-13T02:46:00;5.60;;;3.70;;
57249;SDS011;43102;52.014;-0.680;2022-10-13T02:47:00;5.60;;;3.70;;
57249;SDS011;43102;52.014;-0.680;2022-10-13T02:48:00;5.60;;;3.70;;
57249;SDS011;43102;52.014;-0.680;2022-10-13T02:49:00;5.60;;;3.70;;
57249;SDS011;43102;52.014;-0.680;2022-10-13T02:50:00;5.60;;;3.70;;
57249;SDS011;43102;52.014;-0.680;2022-10-13T02:51:00;5.60;;;3.70;;
57249;SDS011;43102;52.014;-0.680;2022-10-13T02:52:00;5.60;;;3.70;;
57249;SDS011;43102;52.014;-0.680;2022-10-13T02:53:00;5.60;;;3.70;;
57249;SDS011;43102;52.014;-0.680;2022-10-13T02:54:00;5.60;;;3.70;;
57249;SDS011;43102;52.014;-0.680;2022-10-13T02:55:00;8.20;;;4.50;;
57249;SDS011;43102;52.014;-0.680;2022-10-13T02:56:00;8.20;;;4.50;;
57249;SDS011;43102;52.014;-0.680;2022-10-13T02:57:00;8.20;;;4.50;;
57249;SDS011;43102;52.014;-0.680;2022-10-13T02:58:00;8.20;;;4.50;;
57249;SDS011;43102;52.014;-0.680;2022-10-13T02:59:00;8.20;;;4.50;;
57249;SDS011;43102;52.014;-0.680;2022-10-13T03:00:00;8.20;;;4.50;;
57249;SDS011;43102;52.014;-0.680;2022-10-13T03:01:11;8.20;;;4.50;;
57249;SDS011;43102;52.014;-0.680;2022-10-13T03:02:00;8.20;;;4.50;;
57249;SDS011;43102;52.014;-0.680;2022-10-13T03:03:00;8.20;;;4.50;;
57249;SDS011;43102;52.014;-0.680;2022-10-13T03:04:00;8.20;;;4.50;;
57249;SDS011;43102;52.014;-0.680;2022-10-13T03:05:00;8.20;;;4.50;;
57249;SDS011;43102;52.014;-0.680;2022-10-13T03:06:00;8.20;;;4.50;;
57249;SDS011;43102;52.014;-0.680;2022-10-13T03:07:00;8.20;;;4.50;;
57249;SDS011;43102;52.014;-0.680;2022-10-13T03:08:00;8.20;;;4.50;;
57249;SDS011;43102;52.014;-0.680;2022-10-13T03:09:00;8.20;;;4.50;;
57249;SDS011;43102;52.014;-0.680;2022-10-13T03:10:00;8.20;;;4.50;;
57249;SDS011;43102;52.014;-0.680;2022-10-13T03:11:00;8.20;;;4.50;;
57249;SDS011;43102;52.014;-0.680;2022-10-13T03:12:00;8.20;;;4.50;;
57249;SDS011;43102;52.014;-0.680;2022-10-13T03:13:00;8.20;;;4.50;;
57249;SDS011;43102;52.014;-0.680;2022-10-13T03:14:00;8.20;;;4.50;;
57249;SDS011;43102;52.014;-0.680;2022-10-13T03:15:03;8.20;;;4.50;;
57249;SDS011;43102;52.014;-0.680;2022-10-13T03:16:00;8.20;;;4.50;;
57249;SDS011;43102;52.014;-0.680;2022-10-13T03:17:00;8.20;;;4.50;;
57249;SDS011;43102;52.014;-0.680;2022-10-13T03:18:00;8.20;;;4.50;;
57249;SDS011;43102;52.014;-0.680;2022-10-13T03:19:00;8.20;;;4.50;;
57249;SDS011;43102;52.014;-0.680;2022-10-13T03:20:00;8.20;;;4.50;;
57249;SDS011;43102;52.014;-0.680;2022-10-13T03:21:03;8.20;;;4.50;;
57249;SDS011;43102;52.014;-0.680;2022-10-13T03:22:00;8.20;;;4.50;;
57249;SDS011;43102;52.014;-0.680;2022-10-13T03:23:00;8.20;;;4.50;;
57249;SDS011;43102;52.014;-0.680;2022-10-13T03:24:00;8.20;;;4.50;;
57249;SDS011;43102;52.014;-0.680;2022-10-13T03:25:00;7.30;;;5.50;;
57249;SDS011;43102;52.014;-0.680;2022-10-13T03:26:01;7.30;;;5.50;;
57249;SDS011;43102;52.014;-0.680;2022-10-13T03:27:00;7.30;;;5.50;;
57249;SDS011;43102;52.014;-0.680;2022-10-13T03:28:00;7.30;;;5.50;;
57249;SDS011;43102;52.014;-0.680;2022-10-13T03:29:01;7.30;;;5.50;;
57249;SDS011;43102;52.014;-0.680;2022-10-13T03:30:00;7.30;;;5.50;;
57249;SDS011;43102;52.014;-0.680;2022-10-13T03:31:03;7.30;;;5.50;;
57249;SDS011;43102;52.014;-0.680;2022-10-13T03:32:00;7.30;;;5.50;;
57249;SDS011;43102;52.014;-0.680;2022-10-13T03:33:00;7.30;;;5.50;;
57249;SDS011;43102;52.014;-0.680;2022-10-13T03:34:00;7.30;;;5.50;;
57249;SDS011;43102;52.014;-0.680;2022-10-13T03:35:00;7.30;;;5.50;;
57249;SDS011;43102;52.014;-0.680;2022-10-13T03:36:03;7.30;;;5.50;;
57249;SDS011;43102;52.014;-0.680;2022-10-13T03:37:00;7.30;;;5.50;;
57249;SDS011;43102;52.014;-0.680;2022-10-13T03:38:00;7.30;;;5.50;;
57249;SDS011;43102;52.014;-0.680;2022-10-13T03:39:00;7.30;;;5.50;;
57249;SDS011;43102;52.014;-0.680;2022-10-13T03:40:00;7.30;;;5.50;;
57249;SDS011;43102;52.014;-0.680;2022-10-13T03:41:06;7.30;;;5.50;;
57249;SDS011;43102;52.014;-0.680;2022-10-13T03:42:00;7.30;;;5.50;;
57249;SDS011;43102;52.014;-0.680;2022-10-13T03:43:00;7.30;;;5.50;;
57249;SDS011;43102;52.014;-0.680;2022-10-13T03:44:00;7.30;;;5.50;;
57249;SDS011;43102;52.014;-0.680;2022-10-13T03:45:01;7.30;;;5.50;;
57249;SDS011;43102;52.014;-0.680;2022-10-13T03:46:01;7.30;;;5.50;;
57249;SDS011;43102;52.014;-0.680;2022-10-13T03:47:00;7.30;;;5.50;;
57249;SDS011;43102;52.014;-0.680;2022-10-13T03:48:00;7.30;;;5.50;;
57249;SDS011;43102;52.014;-0.680;2022-10-13T03:49:00;7.30;;;5.50;;
57249;SDS011;43102;52.014;-0.680;2022-10-13T03:50:00;7.30;;;5.50;;
57249;SDS011;43102;52.014;-0.680;2022-10-13T03:51:04;7.30;;;5.50;;
57249;SDS011;43102;52.014;-0.680;2022-10-13T03:52:00;7.30;;;5.50;;
57249;SDS011;43102;52.014;-0.680;2022-10-13T03:53:00;7.30;;;5.50;;
57249;SDS011;43102;52.014;-0.680;2022-10-13T03:54:00;7.30;;;5.50;;
57249;SDS011;43102;52.014;-0.680;2022-10-13T03:55:00;9.50;;;6.80;;
57249;SDS011;43102;52.014;-0.680;2022-10-13T03:56:01;9.50;;;6.80;;
57249;SDS011;43102;52.014;-0.680;2022-10-13T03:57:00;9.50;;;6.80;;
57249;SDS011;43102;52.014;-0.680;2022-10-13T03:58:00;9.50;;;6.80;;
57249;SDS011;43102;52.014;-0.680;2022-10-13T03:59:04;9.50;;;6.80;;
57249;SDS011;43102;52.014;-0.680;2022-10-13T04:00:00;9.50;;;6.80;;
57249;SDS011;43102;52.014;-0.680;2022-10-13T04:01:02;9.50;;;6.80;;
57249;SDS011;43102;52.014;-0.680;2022-10-13T04:02:00;9.50;;;6.80;;
57249;SDS011;43102;52.014;-0.680;2022-10-13T04:03:00;9.50;;;6.80;;
57249;SDS011;43102;52.014;-0.680;2022-10-13T04:04:01;9.50;;;6.80;;
57249;SDS011;43102;52.014;-0.680;2022-10-13T04:05:00;9.50;;;6.80;;
57249;SDS011;43102;52.014;-0.680;2022-10-13T04:06:02;9.50;;;6.80;;
57249;SDS011;43102;52.014;-0.680;2022-10-13T04:07:00;9.50;;;6.80;;
57249;SDS011;43102;52.014;-0.680;2022-10-13T04:08:00;9.50;;;6.80;;
57249;SDS011;43102;52.014;-0.680;2022-10-13T04:09:00;9.50;;;6.80;;
57249;SDS011;43102;52.014;-0.680;2022-10-13T04:10:00;9.50;;;6.80;;
57249;SDS011;43102;52.014;-0.680;2022-10-13T04:11:02;9.50;;;6.80;;
57249;SDS011;43102;52.014;-0.680;2022-10-13T04:12:00;9.50;;;6.80;;
57249;SDS011;43102;52.014;-0.680;2022-10-13T04:13:00;9.50;;;6.80;;
57249;SDS011;43102;52.014;-0.680;2022-10-13T04:14:00;9.50;;;6.80;;
57249;SDS011;43102;52.014;-0.680;2022-10-13T04:15:00;9.50;;;6.80;;
57249;SDS011;43102;52.014;-0.680;2022-10-13T04:16:03;9.50;;;6.80;;
57249;SDS011;43102;52.014;-0.680;2022-10-13T04:17:00;9.50;;;6.80;;
57249;SDS011;43102;52.014;-0.680;2022-10-13T04:18:00;9.50;;;6.80;;
57249;SDS011;43102;52.014;-0.680;2022-10-13T04:19:03;9.50;;;6.80;;
57249;SDS011;43102;52.014;-0.680;2022-10-13T04:20:00;9.50;;;6.80;;
57249;SDS011;43102;52.014;-0.680;2022-10-13T04:21:00;9.50;;;6.80;;
57249;SDS011;43102;52.014;-0.680;2022-10-13T04:22:00;9.50;;;6.80;;
57249;SDS011;43102;52.014;-0.680;2022-10-13T04:23:00;9.50;;;6.80;;
57249;SDS011;43102;52.014;-0.680;2022-10-13T04:24:01;9.50;;;6.80;;
57249;SDS011;43102;52.014;-0.680;2022-10-13T04:25:00;11.90;;;8.00;;
57249;SDS011;43102;52.014;-0.680;2022-10-13T04:26:00;11.90;;;8.00;;
57249;SDS011;43102;52.014;-0.680;2022-10-13T04:27:00;11.90;;;8.00;;
57249;SDS011;43102;52.014;-0.680;2022-10-13T04:28:00;11.90;;;8.00;;
57249;SDS011;43102;52.014;-0.680;2022-10-13T04:29:02;11.90;;;8.00;;
57249;SDS011;43102;52.014;-0.680;2022-10-13T04:30:00;11.90;;;8.00;;
57249;SDS011;43102;52.014;-0.680;2022-10-13T04:31:02;11.90;;;8.00;;
57249;SDS011;43102;52.014;-0.680;2022-10-13T04:32:00;11.90;;;8.00;;
57249;SDS011;43102;52.014;-0.680;2022-10-13T04:33:00;11.90;;;8.00;;
57249;SDS011;43102;52.014;-0.680;2022-10-13T04:34:00;11.90;;;8.00;;
57249;SDS011;43102;52.014;-0.680;2022-10-13T04:35:00;11.90;;;8.00;;
57249;SDS011;43102;52.014;-0.680;2022-10-13T04:36:03;11.90;;;8.00;;
57249;SDS011;43102;52.014;-0.680;2022-10-13T04:37:00;11.90;;;8.00;;
57249;SDS011;43102;52.014;-0.680;2022-10-13T04:38:00;11.90;;;8.00;;
57249;SDS011;43102;52.014;-0.680;2022-10-13T04:39:00;11.90;;;8.00;;
57249;SDS011;43102;52.014;-0.680;2022-10-13T04:40:00;11.90;;;8.00;;
57249;SDS011;43102;52.014;-0.680;2022-10-13T04:41:03;11.90;;;8.00;;
57249;SDS011;43102;52.014;-0.680;2022-10-13T04:42:00;11.90;;;8.00;;
57249;SDS011;43102;52.014;-0.680;2022-10-13T04:43:00;11.90;;;8.00;;
57249;SDS011;43102;52.014;-0.680;2022-10-13T04:44:01;11.90;;;8.00;;
57249;SDS011;43102;52.014;-0.680;2022-10-13T04:45:00;11.90;;;8.00;;
57249;SDS011;43102;52.014;-0.680;2022-10-13T04:46:03;11.90;;;8.00;;
57249;SDS011;43102;52.014;-0.680;2022-10-13T04:47:00;11.90;;;8.00;;
57249;SDS011;43102;52.014;-0.680;2022-10-13T04:48:00;11.90;;;8.00;;
57249;SDS011;43102;52.014;-0.680;2022-10-13T04:49:00;11.90;;;8.00;;
57249;SDS011;43102;52.014;-0.680;2022-10-13T04:50:00;11.90;;;8.00;;
57249;SDS011;43102;52.014;-0.680;2022-10-13T04:51:03;11.90;;;8.00;;
57249;SDS011;43102;52.014;-0.680;2022-10-13T04:52:00;11.90;;;8.00;;
57249;SDS011;43102;52.014;-0.680;2022-10-13T04:53:00;11.90;;;8.00;;
57249;SDS011;43102;52.014;-0.680;2022-10-13T04:54:01;11.90;;;8.00;;
57249;SDS011;43102;52.014;-0.680;2022-10-13T04:55:00;11.20;;;8.60;;
57249;SDS011;43102;52.014;-0.680;2022-10-13T04:56:01;11.20;;;8.60;;
57249;SDS011;43102;52.014;-0.680;2022-10-13T04:57:00;11.20;;;8.60;;
57249;SDS011;43102;52.014;-0.680;2022-10-13T04:58:00;11.20;;;8.60;;
57249;SDS011;43102;52.014;-0.680;2022-10-13T04:59:00;11.20;;;8.60;;
57249;SDS011;43102;52.014;-0.680;2022-10-13T05:00:00;11.20;;;8.60;;
57249;SDS011;43102;52.014;-0.680;2022-10-13T05:01:01;11.20;;;8.60;;
57249;SDS011;43102;52.014;-0.680;2022-10-13T05:02:02;11.20;;;8.60;;
57249;SDS011;43102;52.014;-0.680;2022-10-13T05:03:00;11.20;;;8.60;;
57249;SDS011;43102;52.014;-0.680;2022-10-13T05:04:01;11.20;;;8.60;;
57249;SDS011;43102;52.014;-0.680;2022-10-13T05:05:00;11.20;;;8.60;;
57249;SDS011;43102;52.014;-0.680;2022-10-13T05:06:00;11.20;;;8.60;;
57249;SDS011;43102;52.014;-0.680;2022-10-13T05:07:10;11.20;;;8.60;;
57249;SDS011;43102;52.014;-0.680;2022-10-13T05:08:00;11.20;;;8.60;;
57249;SDS011;43102;52.014;-0.680;2022-10-13T05:09:01;11.20;;;8.60;;
57249;SDS011;43102;52.014;-0.680;2022-10-13T05:10:00;11.20;;;8.60;;
57249;SDS011;43102;52.014;-0.680;2022-10-13T05:11:01;11.20;;;8.60;;
57249;SDS011;43102;52.014;-0.680;2022-10-13T05:12:00;11.20;;;8.60;;
57249;SDS011;43102;52.014;-0.680;2022-10-13T05:13:00;11.20;;;8.60;;
57249;SDS011;43102;52.014;-0.680;2022-10-13T05:14:00;11.20;;;8.60;;
57249;SDS011;43102;52.014;-0.680;2022-10-13T05:15:00;11.20;;;8.60;;
57249;SDS011;43102;52.014;-0.680;2022-10-13T05:16:04;11.20;;;8.60;;
57249;SDS011;43102;52.014;-0.680;2022-10-13T05:17:01;11.20;;;8.60;;
57249;SDS011;43102;52.014;-0.680;2022-10-13T05:18:00;11.20;;;8.60;;
57249;SDS011;43102;52.014;-0.680;2022-10-13T05:19:00;11.20;;;8.60;;
57249;SDS011;43102;52.014;-0.680;2022-10-13T05:20:00;11.20;;;8.60;;
57249;SDS011;43102;52.014;-0.680;2022-10-13T05:21:09;11.20;;;8.60;;
57249;SDS011;43102;52.014;-0.680;2022-10-13T05:22:00;11.20;;;8.60;;
57249;SDS011;43102;52.014;-0.680;2022-10-13T05:23:00;11.20;;;8.60;;
57249;SDS011;43102;52.014;-0.680;2022-10-13T05:24:01;11.20;;;8.60;;
57249;SDS011;43102;52.014;-0.680;2022-10-13T05:25:00;11.90;;;8.70;;
57249;SDS011;43102;52.014;-0.680;2022-10-13T05:26:01;11.90;;;8.70;;
57249;SDS011;43102;52.014;-0.680;2022-10-13T05:27:00;11.90;;;8.70;;
57249;SDS011;43102;52.014;-0.680;2022-10-13T05:28:00;11.90;;;8.70;;
57249;SDS011;43102;52.014;-0.680;2022-10-13T05:29:01;11.90;;;8.70;;
57249;SDS011;43102;52.014;-0.680;2022-10-13T05:30:00;11.90;;;8.70;;
57249;SDS011;43102;52.014;-0.680;2022-10-13T05:31:11;11.90;;;8.70;;
57249;SDS011;43102;52.014;-0.680;2022-10-13T05:32:00;11.90;;;8.70;;
57249;SDS011;43102;52.014;-0.680;2022-10-13T05:33:00;11.90;;;8.70;;
57249;SDS011;43102;52.014;-0.680;2022-10-13T05:34:00;11.90;;;8.70;;
57249;SDS011;43102;52.014;-0.680;2022-10-13T05:35:00;11.90;;;8.70;;
57249;SDS011;43102;52.014;-0.680;2022-10-13T05:36:04;11.90;;;8.70;;
57249;SDS011;43102;52.014;-0.680;2022-10-13T05:37:00;11.90;;;8.70;;
57249;SDS011;43102;52.014;-0.680;2022-10-13T05:38:00;11.90;;;8.70;;
57249;SDS011;43102;52.014;-0.680;2022-10-13T05:39:02;11.90;;;8.70;;
57249;SDS011;43102;52.014;-0.680;2022-10-13T05:40:00;11.90;;;8.70;;
57249;SDS011;43102;52.014;-0.680;2022-10-13T05:41:02;11.90;;;8.70;;
57249;SDS011;43102;52.014;-0.680;2022-10-13T05:42:00;11.90;;;8.70;;
57249;SDS011;43102;52.014;-0.680;2022-10-13T05:43:00;11.90;;;8.70;;
57249;SDS011;43102;52.014;-0.680;2022-10-13T05:44:02;11.90;;;8.70;;
57249;SDS011;43102;52.014;-0.680;2022-10-13T05:45:00;11.90;;;8.70;;
57249;SDS011;43102;52.014;-0.680;2022-10-13T05:46:00;11.90;;;8.70;;
57249;SDS011;43102;52.014;-0.680;2022-10-13T05:47:07;11.90;;;8.70;;
57249;SDS011;43102;52.014;-0.680;2022-10-13T05:48:00;11.90;;;8.70;;
57249;SDS011;43102;52.014;-0.680;2022-10-13T05:49:00;11.90;;;8.70;;
57249;SDS011;43102;52.014;-0.680;2022-10-13T05:50:00;11.90;;;8.70;;
57249;SDS011;43102;52.014;-0.680;2022-10-13T05:51:03;11.90;;;8.70;;
57249;SDS011;43102;52.014;-0.680;2022-10-13T05:52:02;11.90;;;8.70;;
57249;SDS011;43102;52.014;-0.680;2022-10-13T05:53:00;11.90;;;8.70;;
57249;SDS011;43102;52.014;-0.680;2022-10-13T05:54:07;11.90;;;8.70;;
57249;SDS011;43102;52.014;-0.680;2022-10-13T05:55:02;13.40;;;9.10;;
57249;SDS011;43102;52.014;-0.680;2022-10-13T05:56:05;13.40;;;9.10;;
57249;SDS011;43102;52.014;-0.680;2022-10-13T05:58:00;13.40;;;9.10;;
57249;SDS011;43102;52.014;-0.680;2022-10-13T05:59:03;13.40;;;9.10;;
57249;SDS011;43102;52.014;-0.680;2022-10-13T06:00:05;13.40;;;9.10;;
57249;SDS011;43102;52.014;-0.680;2022-10-13T06:01:01;13.40;;;9.10;;
57249;SDS011;43102;52.014;-0.680;2022-10-13T06:02:02;13.40;;;9.10;;
57249;SDS011;43102;52.014;-0.680;2022-10-13T06:03:07;13.40;;;9.10;;
57249;SDS011;43102;52.014;-0.680;2022-10-13T06:04:03;13.40;;;9.10;;
57249;SDS011;43102;52.014;-0.680;2022-10-13T06:05:02;13.40;;;9.10;;
57249;SDS011;43102;52.014;-0.680;2022-10-13T06:06:01;13.40;;;9.10;;
57249;SDS011;43102;52.014;-0.680;2022-10-13T06:07:00;13.40;;;9.10;;
57249;SDS011;43102;52.014;-0.680;2022-10-13T06:08:00;13.40;;;9.10;;
57249;SDS011;43102;52.014;-0.680;2022-10-13T06:09:00;13.40;;;9.10;;
57249;SDS011;43102;52.014;-0.680;2022-10-13T06:10:00;13.40;;;9.10;;
57249;SDS011;43102;52.014;-0.680;2022-10-13T06:11:02;13.40;;;9.10;;
57249;SDS011;43102;52.014;-0.680;2022-10-13T06:12:00;13.40;;;9.10;;
57249;SDS011;43102;52.014;-0.680;2022-10-13T06:13:00;13.40;;;9.10;;